createdAt,value
2023-01-17T00:01:48.862Z,0.00
2023-01-17T00:04:33.912Z,0.00
2023-01-17T00:07:20.752Z,0.00
2023-01-17T00:09:54.556Z,0.00
2023-01-17T00:12:23.727Z,0.00
2023-01-17T00:14:53.341Z,0.00
2023-01-17T00:17:21.208Z,0.00
2023-01-17T00:20:06.271Z,0.00
2023-01-17T00:22:53.570Z,0.00
2023-01-17T00:25:38.050Z,0.00
2023-01-17T00:28:05.766Z,0.00
2023-01-17T00:30:33.025Z,0.00
2023-01-17T00:33:00.216Z,0.00
2023-01-17T00:35:28.540Z,0.00
2023-01-17T00:38:04.398Z,0.00
2023-01-17T00:40:31.195Z,0.00
2023-01-17T00:43:16.814Z,0.00
2023-01-17T00:46:03.318Z,0.00
2023-01-17T00:48:48.977Z,0.00
2023-01-17T00:51:34.267Z,0.00
2023-01-17T00:54:21.079Z,0.00
2023-01-17T00:57:06.614Z,0.00
2023-01-17T00:59:51.831Z,0.00
2023-01-17T01:02:37.329Z,0.00
2023-01-17T01:05:23.580Z,0.00
2023-01-17T01:08:09.147Z,0.00
2023-01-17T01:10:55.888Z,0.00
2023-01-17T01:13:42.232Z,0.00
2023-01-17T01:16:27.795Z,0.00
2023-01-17T01:19:13.271Z,0.00
2023-01-17T01:21:58.766Z,0.00
2023-01-17T01:24:44.001Z,0.00
2023-01-17T01:27:31.014Z,0.00
2023-01-17T01:30:16.595Z,0.00
2023-01-17T01:33:01.876Z,0.00
2023-01-17T01:35:29.920Z,0.00
2023-01-17T01:37:57.815Z,0.00
2023-01-17T01:40:25.695Z,0.00
2023-01-17T01:42:56.796Z,0.00
2023-01-17T01:45:26.716Z,0.00
2023-01-17T01:47:58.312Z,0.00
2023-01-17T01:50:27.407Z,0.00
2023-01-17T01:53:00.059Z,0.00
2023-01-17T01:55:32.400Z,0.00
2023-01-17T01:58:09.733Z,0.00
2023-01-17T02:00:40.836Z,0.00
2023-01-17T02:03:12.523Z,0.00
2023-01-17T02:05:42.476Z,0.00
2023-01-17T02:08:14.073Z,0.00
2023-01-17T02:10:43.943Z,0.00
2023-01-17T02:13:16.184Z,0.00
2023-01-17T02:15:57.974Z,0.00
2023-01-17T02:18:36.765Z,0.00
2023-01-17T02:21:22.315Z,0.00
2023-01-17T02:24:33.657Z,0.00
2023-01-17T02:27:06.336Z,0.00
2023-01-17T02:33:12.706Z,0.00
2023-01-17T02:35:49.308Z,0.00
2023-01-17T02:38:31.520Z,0.00
2023-01-17T02:41:05.231Z,0.00
2023-01-17T02:43:33.955Z,0.00
2023-01-17T02:46:01.684Z,0.00
2023-01-17T02:48:33.957Z,0.00
2023-01-17T02:51:28.729Z,0.00
2023-01-17T02:54:12.563Z,0.00
2023-01-17T02:56:50.576Z,0.00
2023-01-17T02:59:34.524Z,0.00
2023-01-17T03:02:11.920Z,0.00
2023-01-17T03:04:48.077Z,0.00
2023-01-17T03:07:20.673Z,0.00
2023-01-17T03:09:53.489Z,0.00
2023-01-17T03:12:21.702Z,0.00
2023-01-17T03:14:49.510Z,0.00
2023-01-17T03:17:17.521Z,0.00
2023-01-17T03:19:46.675Z,0.00
2023-01-17T03:22:14.415Z,0.00
2023-01-17T03:24:42.167Z,0.00
2023-01-17T03:27:11.335Z,0.00
2023-01-17T03:29:39.164Z,0.00
2023-01-17T03:32:07.349Z,0.00
2023-01-17T03:34:35.145Z,0.00
2023-01-17T03:37:04.472Z,0.00
2023-01-17T03:39:32.298Z,0.00
2023-01-17T03:42:00.138Z,0.00
2023-01-17T03:44:27.870Z,0.00
2023-01-17T03:46:55.615Z,0.00
2023-01-17T03:49:23.377Z,0.00
2023-01-17T03:51:51.162Z,0.00
2023-01-17T03:54:20.265Z,0.00
2023-01-17T03:56:47.997Z,0.00
2023-01-17T03:59:15.712Z,0.00
2023-01-17T04:01:43.609Z,0.00
2023-01-17T04:04:11.378Z,0.00
2023-01-17T04:06:39.119Z,0.00
2023-01-17T04:09:06.872Z,0.00
2023-01-17T04:11:36.072Z,0.00
2023-01-17T04:14:03.944Z,0.00
2023-01-17T04:16:33.166Z,0.00
2023-01-17T04:19:01.016Z,0.00
2023-01-17T04:21:28.886Z,0.00
2023-01-17T04:23:56.736Z,0.00
2023-01-17T04:26:24.556Z,0.00
2023-01-17T04:28:53.772Z,0.00
2023-01-17T04:31:21.719Z,0.00
2023-01-17T04:33:49.481Z,0.10
2023-01-17T04:36:17.974Z,0.00
2023-01-17T04:38:45.791Z,0.00
2023-01-17T04:41:13.599Z,0.00
2023-01-17T04:43:41.360Z,0.00
2023-01-17T04:46:11.182Z,0.00
2023-01-17T04:48:39.276Z,0.00
2023-01-17T04:51:07.389Z,0.00
2023-01-17T04:53:35.225Z,0.00
2023-01-17T04:56:03.073Z,0.00
2023-01-17T04:58:31.339Z,0.00
2023-01-17T05:01:02.870Z,0.00
2023-01-17T05:03:32.604Z,0.00
2023-01-17T05:06:00.585Z,0.00
2023-01-17T05:08:28.767Z,0.00
2023-01-17T05:10:56.554Z,0.00
2023-01-17T05:13:24.382Z,0.00
2023-01-17T05:15:52.387Z,0.00
2023-01-17T05:18:20.584Z,0.00
2023-01-17T05:20:57.595Z,0.00
2023-01-17T05:23:25.327Z,0.00
2023-01-17T05:25:53.067Z,0.00
2023-01-17T05:28:20.897Z,0.00
2023-01-17T05:30:48.787Z,0.00
2023-01-17T05:33:16.578Z,0.00
2023-01-17T05:35:44.460Z,0.00
2023-01-17T05:38:13.590Z,0.00
2023-01-17T05:40:41.328Z,0.00
2023-01-17T05:43:10.047Z,0.10
2023-01-17T05:45:38.010Z,0.00
2023-01-17T05:48:06.596Z,0.00
2023-01-17T05:50:36.537Z,0.00
2023-01-17T05:53:07.506Z,0.00
2023-01-17T05:55:37.864Z,0.00
2023-01-17T05:58:07.258Z,0.00
2023-01-17T06:00:34.959Z,0.00
2023-01-17T06:03:02.995Z,0.00
2023-01-17T06:05:31.872Z,0.00
2023-01-17T06:07:59.637Z,0.00
2023-01-17T06:10:28.233Z,0.00
2023-01-17T06:13:05.790Z,0.00
2023-01-17T06:15:34.014Z,0.00
2023-01-17T06:18:05.919Z,0.00
2023-01-17T06:20:34.321Z,0.00
2023-01-17T06:23:04.234Z,0.00
2023-01-17T06:25:36.432Z,0.00
2023-01-17T06:28:06.179Z,0.00
2023-01-17T06:30:34.482Z,0.00
2023-01-17T06:33:02.379Z,0.00
2023-01-17T06:35:30.490Z,0.00
2023-01-17T06:37:59.754Z,0.00
2023-01-17T06:40:28.862Z,0.00
2023-01-17T06:43:01.059Z,0.00
2023-01-17T06:45:30.673Z,0.00
2023-01-17T06:47:59.219Z,0.00
2023-01-17T06:50:27.399Z,0.00
2023-01-17T06:52:57.315Z,0.00
2023-01-17T06:55:25.927Z,0.00
2023-01-17T06:57:54.621Z,0.10
2023-01-17T07:00:23.148Z,0.00
2023-01-17T07:02:52.884Z,0.00
2023-01-17T07:05:20.978Z,0.00
2023-01-17T07:07:49.229Z,0.00
2023-01-17T07:10:17.640Z,0.00
2023-01-17T07:12:45.446Z,0.00
2023-01-17T07:15:14.009Z,0.00
2023-01-17T07:17:41.883Z,0.00
2023-01-17T07:20:12.059Z,0.00
2023-01-17T07:22:39.889Z,0.00
2023-01-17T07:25:08.556Z,0.00
2023-01-17T07:27:36.318Z,0.00
2023-01-17T07:30:04.277Z,0.00
2023-01-17T07:32:32.139Z,0.00
2023-01-17T07:34:59.923Z,0.00
2023-01-17T07:37:29.056Z,0.00
2023-01-17T07:39:56.943Z,0.00
2023-01-17T07:42:24.776Z,0.00
2023-01-17T07:44:52.805Z,0.00
2023-01-17T07:47:21.065Z,0.00
2023-01-17T07:49:48.811Z,0.00
2023-01-17T07:52:18.212Z,0.00
2023-01-17T07:54:47.588Z,0.00
2023-01-17T07:57:15.454Z,0.00
2023-01-17T07:59:43.295Z,0.00
2023-01-17T08:02:18.579Z,0.00
2023-01-17T08:04:46.407Z,0.00
2023-01-17T08:07:14.519Z,0.00
2023-01-17T08:09:43.100Z,0.00
2023-01-17T08:12:12.211Z,0.00
2023-01-17T08:14:39.975Z,0.00
2023-01-17T08:17:07.782Z,0.00
2023-01-17T08:19:35.621Z,0.00
2023-01-17T08:22:03.423Z,0.00
2023-01-17T08:24:31.263Z,0.00
2023-01-17T08:26:59.037Z,0.00
2023-01-17T08:29:28.254Z,0.00
2023-01-17T08:31:56.309Z,0.00
2023-01-17T08:34:24.094Z,0.00
2023-01-17T08:36:53.888Z,0.00
2023-01-17T08:39:22.395Z,0.00
2023-01-17T08:41:50.162Z,0.00
2023-01-17T08:44:19.884Z,0.00
2023-01-17T08:46:49.038Z,0.00
2023-01-17T08:49:16.819Z,0.00
2023-01-17T08:51:44.545Z,0.00
2023-01-17T08:54:15.044Z,0.00
2023-01-17T08:56:43.763Z,0.00
2023-01-17T08:59:12.374Z,0.00
2023-01-17T09:01:41.743Z,0.00
2023-01-17T09:04:11.968Z,0.00
2023-01-17T09:06:41.029Z,0.00
2023-01-17T09:09:11.025Z,0.00
2023-01-17T09:11:39.448Z,0.00
2023-01-17T09:14:07.319Z,0.00
2023-01-17T09:16:35.417Z,0.00
2023-01-17T09:19:03.262Z,0.00
2023-01-17T09:21:32.549Z,0.00
2023-01-17T09:24:00.368Z,0.00
2023-01-17T09:26:29.961Z,0.00
2023-01-17T09:28:58.689Z,0.00
2023-01-17T09:31:27.976Z,0.00
2023-01-17T09:33:57.388Z,0.00
2023-01-17T09:36:28.714Z,0.00
2023-01-17T09:38:59.069Z,0.10
2023-01-17T09:41:29.592Z,0.00
2023-01-17T09:44:04.120Z,0.00
2023-01-17T09:46:37.861Z,0.00
2023-01-17T09:49:09.617Z,0.00
2023-01-17T09:51:37.977Z,0.00
2023-01-17T09:54:07.269Z,0.00
2023-01-17T09:56:42.247Z,0.00
2023-01-17T09:59:33.071Z,0.00
2023-01-17T10:02:18.822Z,0.00
2023-01-17T10:05:03.764Z,0.00
2023-01-17T10:07:42.804Z,0.00
2023-01-17T10:10:29.614Z,0.00
2023-01-17T10:13:04.967Z,0.00
2023-01-17T10:15:45.691Z,0.00
2023-01-17T10:18:44.432Z,0.00
2023-01-17T10:21:23.335Z,0.00
2023-01-17T10:24:16.611Z,0.00
2023-01-17T10:26:49.875Z,0.00
2023-01-17T10:29:20.275Z,0.00
2023-01-17T10:31:55.255Z,0.00
2023-01-17T10:34:29.305Z,0.00
2023-01-17T10:37:02.908Z,0.00
2023-01-17T10:39:32.123Z,0.00
2023-01-17T10:42:08.439Z,0.10
2023-01-17T10:44:41.828Z,0.00
2023-01-17T10:47:19.277Z,0.00
2023-01-17T10:49:51.925Z,0.00
2023-01-17T10:52:28.962Z,0.00
2023-01-17T10:55:11.046Z,0.00
2023-01-17T10:57:43.314Z,0.00
2023-01-17T11:00:31.977Z,0.00
2023-01-17T11:03:02.023Z,0.00
2023-01-17T11:05:32.294Z,0.00
2023-01-17T11:08:02.217Z,0.00
2023-01-17T11:10:54.000Z,0.00
2023-01-17T11:13:27.416Z,0.00
2023-01-17T11:15:57.910Z,0.00
2023-01-17T11:18:28.689Z,0.00
2023-01-17T11:21:12.810Z,0.00
2023-01-17T11:23:43.105Z,0.00
2023-01-17T11:26:13.798Z,0.00
2023-01-17T11:28:43.130Z,0.10
2023-01-17T11:31:26.880Z,0.00
2023-01-17T11:34:10.363Z,0.47
2023-01-17T11:36:38.267Z,0.00
2023-01-17T11:39:19.577Z,0.00
2023-01-17T11:41:48.765Z,0.00
2023-01-17T11:44:26.798Z,0.00
2023-01-17T11:47:16.978Z,0.00
2023-01-17T11:49:46.901Z,0.00
2023-01-17T11:52:23.366Z,0.47
2023-01-17T11:54:53.819Z,0.00
2023-01-17T11:57:25.714Z,0.00
2023-01-17T12:00:04.646Z,0.00
2023-01-17T12:02:56.225Z,0.00
2023-01-17T12:05:41.024Z,0.00
2023-01-17T12:08:18.948Z,0.00
2023-01-17T12:10:57.053Z,0.00
2023-01-17T12:13:57.511Z,0.00
2023-01-17T12:16:44.756Z,0.00
2023-01-17T12:19:36.615Z,0.00
2023-01-17T12:22:22.525Z,0.00
2023-01-17T12:25:07.210Z,0.00
2023-01-17T12:27:45.344Z,0.00
2023-01-17T12:30:26.124Z,0.00
2023-01-17T12:33:12.080Z,0.00
2023-01-17T12:35:46.228Z,0.00
2023-01-17T12:38:31.700Z,0.00
2023-01-17T12:41:07.234Z,0.00
2023-01-17T12:43:37.985Z,0.00
2023-01-17T12:46:13.154Z,0.00
2023-01-17T12:48:42.480Z,0.00
2023-01-17T12:51:17.975Z,0.00
2023-01-17T12:53:51.853Z,0.00
2023-01-17T12:56:25.608Z,0.00
2023-01-17T12:58:56.861Z,0.00
2023-01-17T13:01:30.394Z,0.00
2023-01-17T13:04:17.833Z,0.00
2023-01-17T13:07:01.632Z,0.10
2023-01-17T13:09:34.207Z,0.00
2023-01-17T13:12:06.105Z,0.00
2023-01-17T13:14:34.452Z,0.00
2023-01-17T13:17:21.754Z,0.00
2023-01-17T13:19:58.999Z,0.00
2023-01-17T13:22:27.823Z,0.00
2023-01-17T13:25:03.880Z,0.22
2023-01-17T13:28:02.936Z,0.00
2023-01-17T13:30:56.979Z,0.00
2023-01-17T13:33:36.040Z,0.00
2023-01-17T13:36:20.314Z,0.00
2023-01-17T13:39:08.762Z,0.00
2023-01-17T13:41:48.382Z,0.00
2023-01-17T13:44:25.426Z,0.00
2023-01-17T13:46:58.714Z,0.00
2023-01-17T13:49:35.208Z,0.00
2023-01-17T13:52:09.660Z,0.00
2023-01-17T13:54:46.109Z,0.00
2023-01-17T13:57:42.101Z,0.00
2023-01-17T14:00:58.913Z,0.00
2023-01-17T14:04:12.483Z,0.00
2023-01-17T14:06:43.806Z,0.40
2023-01-17T14:09:20.338Z,0.00
2023-01-17T14:11:58.382Z,0.00
2023-01-17T14:14:51.958Z,0.00
2023-01-17T14:17:51.561Z,0.00
2023-01-17T14:20:49.244Z,0.00
2023-01-17T14:23:39.486Z,0.00
2023-01-17T14:26:46.956Z,0.00
2023-01-17T14:29:52.429Z,0.00
2023-01-17T14:32:23.143Z,0.00
2023-01-17T14:34:52.801Z,0.00
2023-01-17T14:37:46.520Z,0.00
2023-01-17T14:40:20.460Z,0.00
2023-01-17T14:42:55.493Z,0.00
2023-01-17T14:45:28.520Z,0.00
2023-01-17T14:47:58.777Z,0.00
2023-01-17T14:50:29.279Z,0.00
2023-01-17T14:53:28.197Z,0.00
2023-01-17T14:55:59.632Z,0.00
2023-01-17T14:58:31.026Z,0.00
2023-01-17T15:01:02.591Z,0.00
2023-01-17T15:03:34.583Z,0.00
2023-01-17T15:06:11.751Z,0.05
2023-01-17T15:08:40.265Z,0.05
2023-01-17T15:11:12.096Z,0.13
2023-01-17T15:13:45.734Z,0.10
2023-01-17T15:16:24.126Z,0.10
2023-01-17T15:18:52.639Z,0.10
2023-01-17T15:21:22.309Z,0.00
2023-01-17T15:23:53.774Z,0.10
2023-01-17T15:26:24.371Z,0.10
2023-01-17T15:28:54.439Z,0.10
2023-01-17T15:31:25.738Z,0.10
2023-01-17T15:33:57.360Z,0.10
2023-01-17T15:36:33.039Z,0.10
2023-01-17T15:39:04.371Z,0.10
2023-01-17T15:41:35.977Z,0.25
2023-01-17T15:44:06.532Z,0.25
2023-01-17T15:46:42.856Z,0.10
2023-01-17T15:49:19.557Z,0.57
2023-01-17T15:51:50.958Z,0.10
2023-01-17T15:54:40.505Z,0.10
2023-01-17T15:57:23.548Z,0.10
2023-01-17T15:59:56.750Z,0.10
2023-01-17T16:02:30.513Z,0.20
2023-01-17T16:04:58.698Z,0.10
2023-01-17T16:07:34.986Z,0.17
2023-01-17T16:10:09.078Z,0.20
2023-01-17T16:12:36.893Z,0.10
2023-01-17T16:15:12.684Z,0.10
2023-01-17T16:17:42.632Z,0.10
2023-01-17T16:20:16.030Z,0.10
2023-01-17T16:22:44.728Z,0.40
2023-01-17T16:25:17.873Z,0.50
2023-01-17T16:27:46.198Z,0.10
2023-01-17T16:30:17.643Z,0.63
2023-01-17T16:32:46.878Z,0.10
2023-01-17T16:35:18.949Z,0.15
2023-01-17T16:37:50.235Z,0.17
2023-01-17T16:40:18.651Z,0.50
2023-01-17T16:42:47.088Z,0.10
2023-01-17T16:45:17.172Z,0.10
2023-01-17T16:47:46.564Z,0.10
2023-01-17T16:50:16.468Z,0.30
2023-01-17T16:52:44.458Z,0.13
2023-01-17T16:55:15.086Z,0.68
2023-01-17T16:57:43.001Z,0.38
2023-01-17T17:00:13.123Z,0.85
2023-01-17T17:02:42.382Z,0.20
2023-01-17T17:05:11.382Z,1.85
2023-01-17T17:07:42.973Z,0.40
2023-01-17T17:10:11.491Z,0.60
2023-01-17T17:12:39.309Z,0.85
2023-01-17T17:15:08.135Z,0.20
2023-01-17T17:17:36.906Z,0.30
2023-01-17T17:20:09.622Z,0.17
2023-01-17T17:22:37.525Z,0.20
2023-01-17T17:25:06.318Z,0.73
2023-01-17T17:27:34.160Z,0.40
2023-01-17T17:30:02.006Z,0.38
2023-01-17T17:32:30.882Z,0.32
2023-01-17T17:34:58.640Z,0.30
2023-01-17T17:37:28.928Z,0.47
2023-01-17T17:39:56.955Z,0.30
2023-01-17T17:42:25.564Z,0.60
2023-01-17T17:44:53.623Z,0.50
2023-01-17T17:47:21.464Z,0.20
2023-01-17T17:49:49.218Z,0.45
2023-01-17T17:52:17.082Z,0.20
2023-01-17T17:54:46.161Z,0.50
2023-01-17T17:57:13.866Z,0.10
2023-01-17T17:59:41.621Z,0.10
2023-01-17T18:02:11.553Z,0.10
2023-01-17T18:04:39.461Z,0.10
2023-01-17T18:07:07.276Z,0.20
2023-01-17T18:09:35.141Z,0.20
2023-01-17T18:12:04.339Z,0.20
2023-01-17T18:14:32.363Z,0.13
2023-01-17T18:17:00.096Z,0.35
2023-01-17T18:19:27.979Z,0.20
2023-01-17T18:21:55.809Z,0.17
2023-01-17T18:24:25.247Z,0.32
2023-01-17T18:26:55.930Z,0.22
2023-01-17T18:29:26.810Z,0.30
2023-01-17T18:31:55.403Z,0.82
2023-01-17T18:34:24.655Z,0.20
2023-01-17T18:36:53.096Z,0.20
2023-01-17T18:39:22.025Z,0.52
2023-01-17T18:41:50.062Z,0.10
2023-01-17T18:44:21.740Z,0.10
2023-01-17T18:46:51.508Z,0.30
2023-01-17T18:49:19.510Z,0.40
2023-01-17T18:51:50.584Z,0.10
2023-01-17T18:54:19.792Z,1.00
2023-01-17T18:56:47.843Z,0.35
2023-01-17T18:59:18.194Z,0.20
2023-01-17T19:01:46.250Z,0.10
2023-01-17T19:04:17.204Z,0.20
2023-01-17T19:06:46.905Z,0.68
2023-01-17T19:09:16.355Z,0.57
2023-01-17T19:11:45.096Z,0.20
2023-01-17T19:14:14.364Z,0.20
2023-01-17T19:16:42.960Z,0.50
2023-01-17T19:19:13.044Z,0.13
2023-01-17T19:21:42.268Z,0.20
2023-01-17T19:24:12.979Z,0.30
2023-01-17T19:26:40.978Z,0.10
2023-01-17T19:29:08.798Z,0.20
2023-01-17T19:31:42.253Z,0.20
2023-01-17T19:34:10.558Z,0.35
2023-01-17T19:36:39.211Z,0.20
2023-01-17T19:39:10.454Z,1.05
2023-01-17T19:41:41.987Z,0.10
2023-01-17T19:44:11.767Z,0.20
2023-01-17T19:46:39.848Z,0.43
2023-01-17T19:49:09.760Z,0.10
2023-01-17T19:51:39.374Z,0.13
2023-01-17T19:54:09.028Z,3.35
2023-01-17T19:56:36.844Z,15.65
2023-01-17T19:59:04.696Z,12.85
2023-01-17T20:01:34.461Z,1.55
2023-01-17T20:04:03.567Z,0.38
2023-01-17T20:06:33.433Z,0.30
2023-01-17T20:09:01.626Z,0.20
2023-01-17T20:11:30.731Z,0.30
2023-01-17T20:13:59.940Z,0.20
2023-01-17T20:16:30.044Z,0.50
2023-01-17T20:18:58.297Z,0.70
2023-01-17T20:21:27.812Z,0.30
2023-01-17T20:23:57.158Z,0.30
2023-01-17T20:26:31.108Z,0.20
2023-01-17T20:29:00.516Z,0.40
2023-01-17T20:31:30.026Z,0.73
2023-01-17T20:33:58.099Z,0.88
2023-01-17T20:36:28.933Z,0.88
2023-01-17T20:38:57.130Z,1.00
2023-01-17T20:41:26.336Z,0.30
2023-01-17T20:43:56.292Z,0.55
2023-01-17T20:46:27.617Z,0.68
2023-01-17T20:48:57.660Z,0.70
2023-01-17T20:51:27.205Z,0.77
2023-01-17T20:53:57.123Z,0.40
2023-01-17T20:56:25.505Z,0.40
2023-01-17T20:58:54.117Z,0.52
2023-01-17T21:01:22.906Z,0.20
2023-01-17T21:03:54.049Z,0.22
2023-01-17T21:06:24.354Z,0.15
2023-01-17T21:08:52.981Z,0.10
2023-01-17T21:11:23.057Z,0.10
2023-01-17T21:13:51.389Z,0.30
2023-01-17T21:16:22.721Z,0.75
2023-01-17T21:18:53.719Z,0.20
2023-01-17T21:21:23.318Z,0.20
2023-01-17T21:23:55.690Z,0.20
2023-01-17T21:26:26.044Z,0.10
2023-01-17T21:28:54.958Z,0.17
2023-01-17T21:31:25.120Z,0.10
2023-01-17T21:33:56.220Z,0.20
2023-01-17T21:36:25.709Z,0.20
2023-01-17T21:38:56.952Z,0.30
2023-01-17T21:41:28.494Z,0.20
2023-01-17T21:43:58.424Z,0.10
2023-01-17T21:46:27.343Z,0.38
2023-01-17T21:48:57.669Z,0.40
2023-01-17T21:51:42.667Z,0.20
2023-01-17T21:54:10.680Z,0.68
2023-01-17T21:56:58.230Z,0.20
2023-01-17T21:59:26.110Z,0.10
2023-01-17T22:01:59.820Z,0.25
2023-01-17T22:04:31.831Z,0.10
2023-01-17T22:07:03.385Z,0.10
2023-01-17T22:09:31.255Z,0.20
2023-01-17T22:11:59.131Z,0.68
2023-01-17T22:14:27.011Z,0.10
2023-01-17T22:16:54.848Z,0.20
2023-01-17T22:19:22.634Z,0.10
2023-01-17T22:21:51.715Z,0.10
2023-01-17T22:24:19.413Z,0.10
2023-01-17T22:26:47.200Z,0.10
2023-01-17T22:29:18.304Z,0.20
2023-01-17T22:31:46.237Z,0.45
2023-01-17T22:34:14.179Z,0.10
2023-01-17T22:36:42.380Z,0.10
2023-01-17T22:39:12.155Z,0.10
2023-01-17T22:41:40.139Z,0.10
2023-01-17T22:44:08.436Z,0.10
2023-01-17T22:46:38.381Z,0.10
2023-01-17T22:49:08.286Z,0.10
2023-01-17T22:51:36.233Z,0.43
2023-01-17T22:54:03.933Z,0.10
2023-01-17T22:56:34.351Z,0.10
2023-01-17T22:59:02.578Z,0.10
2023-01-17T23:01:32.593Z,1.08
2023-01-17T23:04:02.744Z,0.10
2023-01-17T23:06:32.070Z,0.10
2023-01-17T23:09:01.643Z,0.10
2023-01-17T23:11:38.827Z,0.68
2023-01-17T23:14:08.836Z,0.10
2023-01-17T23:16:54.723Z,0.38
2023-01-17T23:19:25.430Z,0.10
2023-01-17T23:22:13.649Z,0.10
2023-01-17T23:24:43.951Z,0.10
2023-01-17T23:27:31.024Z,0.10
2023-01-17T23:30:01.177Z,0.10
2023-01-17T23:32:29.494Z,0.10
2023-01-17T23:34:57.258Z,0.10
2023-01-17T23:37:50.983Z,0.10
2023-01-17T23:40:19.328Z,0.10
2023-01-17T23:43:04.684Z,0.10
2023-01-17T23:45:36.976Z,0.10
2023-01-17T23:48:09.171Z,0.10
2023-01-17T23:50:37.751Z,0.10
2023-01-17T23:53:08.981Z,0.10
2023-01-17T23:55:38.261Z,0.10
2023-01-17T23:58:07.201Z,0.10
